Time,TemperatureF,DewpointF,PressureIn,WindDirection,WindDirectionDegrees,WindSpeedMPH,WindSpeedGustMPH,Humidity,HourlyPrecipIn,Conditions,Clouds,dailyrainin,SoftwareType,DateUTC
2013-01-07 00:00:00,34.6,19.2,29.98,NE,52,3.0,7.0,53,0.00,,---,0.00,VWS V14.01,2013-01-07 07:00:00,
2013-01-07 00:01:00,34.4,19.0,29.99,NE,51,0.0,6.0,53,0.00,,---,0.00,VWS V14.01,2013-01-07 07:01:00,
2013-01-07 00:05:00,34.1,18.8,29.98,NE,52,0.0,6.0,53,0.00,,---,0.00,VWS V14.01,2013-01-07 07:05:00,
2013-01-07 00:06:00,33.6,19.2,29.99,NE,52,0.0,0.0,55,0.00,,---,0.00,VWS V14.01,2013-01-07 07:06:00,
2013-01-07 00:10:00,33.2,18.8,29.98,NE,52,0.0,0.0,55,0.00,,---,0.00,VWS V14.01,2013-01-07 07:10:00,
2013-01-07 00:11:00,32.8,18.8,29.98,NE,55,0.0,4.0,56,0.00,,---,0.00,VWS V14.01,2013-01-07 07:11:00,
2013-01-07 00:15:00,32.7,19.2,29.98,ENE,69,3.0,4.0,57,0.00,,---,0.00,VWS V14.01,2013-01-07 07:15:00,
2013-01-07 00:16:00,32.4,18.9,29.98,ENE,70,0.0,3.0,57,0.00,,---,0.00,VWS V14.01,2013-01-07 07:16:00,
2013-01-07 00:20:00,32.2,18.7,29.98,ENE,70,0.0,3.0,57,0.00,,---,0.00,VWS V14.01,2013-01-07 07:20:00,
2013-01-07 00:21:00,32.0,18.9,29.98,ENE,65,5.0,6.0,58,0.00,,---,0.00,VWS V14.01,2013-01-07 07:21:00,
2013-01-07 00:25:00,32.0,18.9,29.98,ENE,57,4.0,6.0,58,0.00,,---,0.00,VWS V14.01,2013-01-07 07:25:00,
2013-01-07 00:26:00,32.0,18.9,29.98,ENE,60,3.0,6.0,58,0.00,,---,0.00,VWS V14.01,2013-01-07 07:26:00,
2013-01-07 00:30:00,31.8,18.7,29.98,ENE,65,2.0,6.0,58,0.00,,---,0.00,VWS V14.01,2013-01-07 07:30:00,
2013-01-07 00:31:00,31.6,18.9,29.98,ENE,66,4.0,5.0,59,0.00,,---,0.00,VWS V14.01,2013-01-07 07:31:00,
2013-01-07 00:35:00,31.6,18.9,29.98,ENE,67,3.0,5.0,59,0.00,,---,0.00,VWS V14.01,2013-01-07 07:35:00,
2013-01-07 00:36:00,31.6,18.9,29.97,ENE,67,0.0,3.0,59,0.00,,---,0.00,VWS V14.01,2013-01-07 07:36:00,
2013-01-07 00:40:00,31.6,18.9,29.97,ENE,77,3.0,4.0,59,0.00,,---,0.00,VWS V14.01,2013-01-07 07:40:00,
2013-01-07 00:41:00,31.5,18.8,29.97,East,84,3.0,5.0,59,0.00,,---,0.00,VWS V14.01,2013-01-07 07:41:00,
2013-01-07 00:45:00,31.4,19.1,29.97,East,82,4.0,5.0,60,0.00,,---,0.00,VWS V14.01,2013-01-07 07:45:00,
2013-01-07 00:46:00,31.9,20.0,29.96,ENE,71,7.0,9.0,61,0.00,,---,0.00,VWS V14.01,2013-01-07 07:46:00,
2013-01-07 00:50:00,32.3,20.4,29.96,ENE,78,5.0,9.0,61,0.00,,---,0.00,VWS V14.01,2013-01-07 07:50:00,
2013-01-07 00:51:00,32.5,20.6,29.96,East,79,5.0,6.0,61,0.00,,---,0.00,VWS V14.01,2013-01-07 07:51:00,
2013-01-07 00:55:00,32.5,20.9,29.95,East,90,3.0,6.0,62,0.00,,---,0.00,VWS V14.01,2013-01-07 07:55:00,
2013-01-07 00:56:00,33.8,22.9,29.95,East,100,4.0,6.0,64,0.00,,---,0.00,VWS V14.01,2013-01-07 07:56:00,
2013-01-07 01:00:00,34.8,23.5,29.95,East,91,6.0,6.0,63,0.00,,---,0.00,VWS V14.01,2013-01-07 08:00:00,
2013-01-07 01:01:00,35.7,23.2,29.94,East,95,4.0,6.0,60,0.00,,---,0.00,VWS V14.01,2013-01-07 08:01:00,
2013-01-07 01:05:00,35.9,23.4,29.95,East,98,4.0,6.0,60,0.00,,---,0.00,VWS V14.01,2013-01-07 08:05:00,
2013-01-07 01:06:00,35.9,23.0,29.94,East,96,4.0,5.0,59,0.00,,---,0.00,VWS V14.01,2013-01-07 08:06:00,
2013-01-07 01:10:00,36.0,23.1,29.94,East,91,3.0,6.0,59,0.00,,---,0.00,VWS V14.01,2013-01-07 08:10:00,
2013-01-07 01:11:00,36.3,23.4,29.94,ESE,105,4.0,7.0,59,0.00,,---,0.00,VWS V14.01,2013-01-07 08:11:00,
2013-01-07 01:15:00,37.0,23.6,29.93,ESE,102,5.0,10.0,58,0.00,,---,0.00,VWS V14.01,2013-01-07 08:15:00,
2013-01-07 01:16:00,38.6,24.3,29.93,ESE,108,5.0,10.0,56,0.00,,---,0.00,VWS V14.01,2013-01-07 08:16:00,
2013-01-07 01:20:00,39.5,23.8,29.93,ESE,114,4.0,10.0,53,0.00,,---,0.00,VWS V14.01,2013-01-07 08:20:00,
2013-01-07 01:21:00,40.2,24.0,29.93,East,101,6.0,9.0,52,0.00,,---,0.00,VWS V14.01,2013-01-07 08:21:00,
2013-01-07 01:25:00,40.7,24.0,29.93,ESE,105,5.0,10.0,51,0.00,,---,0.00,VWS V14.01,2013-01-07 08:25:00,
2013-01-07 01:26:00,40.9,23.7,29.93,ESE,106,4.0,7.0,50,0.00,,---,0.00,VWS V14.01,2013-01-07 08:26:00,
2013-01-07 01:30:00,41.0,23.8,29.93,East,96,4.0,7.0,50,0.00,,---,0.00,VWS V14.01,2013-01-07 08:30:00,
2013-01-07 01:31:00,41.0,23.8,29.93,ESE,117,3.0,9.0,50,0.00,,---,0.00,VWS V14.01,2013-01-07 08:31:00,
2013-01-07 01:35:00,41.0,25.2,29.92,ESE,117,4.0,9.0,53,0.00,,---,0.00,VWS V14.01,2013-01-07 08:35:00,
2013-01-07 01:36:00,41.0,25.2,29.92,ESE,103,5.0,6.0,53,0.00,,---,0.00,VWS V14.01,2013-01-07 08:36:00,
2013-01-07 01:40:00,41.1,23.9,29.92,ESE,105,4.0,6.0,50,0.00,,---,0.00,VWS V14.01,2013-01-07 08:40:00,
2013-01-07 01:41:00,41.3,23.6,29.92,East,96,2.0,6.0,49,0.00,,---,0.00,VWS V14.01,2013-01-07 08:41:00,
2013-01-07 01:45:00,41.4,23.7,29.92,ESE,105,2.0,6.0,49,0.00,,---,0.00,VWS V14.01,2013-01-07 08:45:00,
2013-01-07 01:46:00,41.6,23.9,29.92,East,88,4.0,6.0,49,0.00,,---,0.00,VWS V14.01,2013-01-07 08:46:00,
2013-01-07 01:50:00,41.7,23.5,29.93,East,98,1.0,6.0,48,0.00,,---,0.00,VWS V14.01,2013-01-07 08:50:00,
2013-01-07 01:51:00,41.7,23.5,29.93,ESE,102,0.0,2.0,48,0.00,,---,0.00,VWS V14.01,2013-01-07 08:51:00,
2013-01-07 01:55:00,41.6,23.4,29.92,ESE,107,0.0,3.0,48,0.00,,---,0.00,VWS V14.01,2013-01-07 08:55:00,
2013-01-07 01:56:00,41.6,23.4,29.92,ESE,110,0.0,4.0,48,0.00,,---,0.00,VWS V14.01,2013-01-07 08:56:00,
2013-01-07 02:00:00,41.6,23.4,29.93,ESE,110,0.0,4.0,48,0.00,,---,0.00,VWS V14.01,2013-01-07 09:00:00,
2013-01-07 02:01:00,41.6,23.4,29.93,WSW,245,0.0,0.0,48,0.00,,---,0.00,VWS V14.01,2013-01-07 09:01:00,
2013-01-07 02:05:00,40.3,22.2,29.93,West,271,4.0,7.0,48,0.00,,---,0.00,VWS V14.01,2013-01-07 09:05:00,
2013-01-07 02:06:00,38.3,21.8,29.93,West,271,0.0,4.0,51,0.00,,---,0.00,VWS V14.01,2013-01-07 09:06:00,
2013-01-07 02:10:00,37.2,21.2,29.93,West,271,0.0,4.0,52,0.00,,---,0.00,VWS V14.01,2013-01-07 09:10:00,
2013-01-07 02:11:00,36.0,21.0,29.93,West,271,0.0,0.0,54,0.00,,---,0.00,VWS V14.01,2013-01-07 09:11:00,
2013-01-07 02:15:00,35.3,21.2,29.93,West,271,0.0,0.0,56,0.00,,---,0.00,VWS V14.01,2013-01-07 09:15:00,
2013-01-07 02:16:00,34.8,20.7,29.93,West,271,0.0,0.0,56,0.00,,---,0.00,VWS V14.01,2013-01-07 09:16:00,
2013-01-07 02:20:00,34.4,20.8,29.93,West,272,0.0,0.0,57,0.00,,---,0.00,VWS V14.01,2013-01-07 09:20:00,
2013-01-07 02:21:00,34.1,20.9,29.93,West,272,0.0,0.0,58,0.00,,---,0.00,VWS V14.01,2013-01-07 09:21:00,
2013-01-07 02:25:00,33.8,20.6,29.93,West,272,0.0,0.0,58,0.00,,---,0.00,VWS V14.01,2013-01-07 09:25:00,
2013-01-07 02:26:00,33.5,20.3,29.93,West,272,2.0,2.0,58,0.00,,---,0.00,VWS V14.01,2013-01-07 09:26:00,
2013-01-07 02:30:00,33.4,20.2,29.93,West,272,0.0,3.0,58,0.00,,---,0.00,VWS V14.01,2013-01-07 09:30:00,
2013-01-07 02:31:00,33.5,20.3,29.93,NNE,28,0.0,3.0,58,0.00,,---,0.00,VWS V14.01,2013-01-07 09:31:00,
2013-01-07 02:35:00,33.5,20.3,29.92,NE,42,5.0,5.0,58,0.00,,---,0.00,VWS V14.01,2013-01-07 09:35:00,
2013-01-07 02:36:00,33.5,20.7,29.92,NE,46,0.0,5.0,59,0.00,,---,0.00,VWS V14.01,2013-01-07 09:36:00,
2013-01-07 02:40:00,33.3,20.5,29.92,NE,52,0.0,5.0,59,0.00,,---,0.00,VWS V14.01,2013-01-07 09:40:00,
2013-01-07 02:41:00,33.2,20.4,29.92,NE,52,0.0,2.0,59,0.00,,---,0.00,VWS V14.01,2013-01-07 09:41:00,
2013-01-07 02:45:00,32.9,20.2,29.92,NE,52,0.0,2.0,59,0.00,,---,0.00,VWS V14.01,2013-01-07 09:45:00,
2013-01-07 02:46:00,32.6,20.3,29.92,NE,52,0.0,0.0,60,0.00,,---,0.00,VWS V14.01,2013-01-07 09:46:00,
2013-01-07 02:50:00,32.4,20.1,29.92,NE,52,0.0,0.0,60,0.00,,---,0.00,VWS V14.01,2013-01-07 09:50:00,
2013-01-07 02:51:00,32.1,20.2,29.92,NE,52,0.0,0.0,61,0.00,,---,0.00,VWS V14.01,2013-01-07 09:51:00,
2013-01-07 02:55:00,31.8,19.9,29.92,NE,52,0.0,0.0,61,0.00,,---,0.00,VWS V14.01,2013-01-07 09:55:00,
2013-01-07 02:56:00,31.5,20.0,29.92,NE,52,0.0,0.0,62,0.00,,---,0.00,VWS V14.01,2013-01-07 09:56:00,
2013-01-07 03:00:00,31.4,19.9,29.92,NE,52,0.0,0.0,62,0.00,,---,0.00,VWS V14.01,2013-01-07 10:00:00,
2013-01-07 03:01:00,31.2,19.7,29.92,NE,52,0.0,0.0,62,0.00,,---,0.00,VWS V14.01,2013-01-07 10:01:00,
2013-01-07 03:05:00,30.8,19.7,29.91,NE,52,0.0,0.0,63,0.00,,---,0.00,VWS V14.01,2013-01-07 10:05:00,
2013-01-07 03:06:00,30.4,19.3,29.91,NE,52,0.0,0.0,63,0.00,,---,0.00,VWS V14.01,2013-01-07 10:06:00,
2013-01-07 03:10:00,30.1,19.4,29.91,NE,52,0.0,0.0,64,0.00,,---,0.00,VWS V14.01,2013-01-07 10:10:00,
2013-01-07 03:11:00,29.8,19.5,29.91,NE,52,0.0,0.0,65,0.00,,---,0.00,VWS V14.01,2013-01-07 10:11:00,
2013-01-07 03:15:00,29.8,19.5,29.91,NE,52,0.0,0.0,65,0.00,,---,0.00,VWS V14.01,2013-01-07 10:15:00,
2013-01-07 03:16:00,30.2,19.9,29.91,NE,52,0.0,0.0,65,0.00,,---,0.00,VWS V14.01,2013-01-07 10:16:00,
2013-01-07 03:20:00,30.7,20.3,29.91,NE,52,0.0,0.0,65,0.00,,---,0.00,VWS V14.01,2013-01-07 10:20:00,
2013-01-07 03:21:00,30.9,19.8,29.90,NE,53,0.0,0.0,63,0.00,,---,0.00,VWS V14.01,2013-01-07 10:21:00,
2013-01-07 03:25:00,30.8,19.7,29.90,NE,52,0.0,0.0,63,0.00,,---,0.00,VWS V14.01,2013-01-07 10:25:00,
2013-01-07 03:26:00,30.6,19.9,29.89,NE,52,0.0,0.0,64,0.00,,---,0.00,VWS V14.01,2013-01-07 10:26:00,
2013-01-07 03:30:00,30.5,19.8,29.89,NE,55,0.0,3.0,64,0.00,,---,0.00,VWS V14.01,2013-01-07 10:30:00,
2013-01-07 03:31:00,30.5,20.1,29.89,NE,55,0.0,0.0,65,0.00,,---,0.00,VWS V14.01,2013-01-07 10:31:00,
2013-01-07 03:35:00,30.4,20.1,29.89,NE,55,0.0,0.0,65,0.00,,---,0.00,VWS V14.01,2013-01-07 10:35:00,
2013-01-07 03:36:00,30.5,20.1,29.89,NE,55,0.0,0.0,65,0.00,,---,0.00,VWS V14.01,2013-01-07 10:36:00,
2013-01-07 03:40:00,30.6,20.2,29.89,NE,55,0.0,0.0,65,0.00,,---,0.00,VWS V14.01,2013-01-07 10:40:00,
2013-01-07 03:41:00,30.8,20.4,29.88,NE,56,0.0,0.0,65,0.00,,---,0.00,VWS V14.01,2013-01-07 10:41:00,
2013-01-07 03:45:00,31.1,21.1,29.88,ENE,68,0.0,0.0,66,0.00,,---,0.00,VWS V14.01,2013-01-07 10:45:00,
2013-01-07 03:46:00,32.3,22.2,29.88,ESE,110,0.0,0.0,66,0.00,,---,0.00,VWS V14.01,2013-01-07 10:46:00,
2013-01-07 03:50:00,33.9,23.0,29.88,ESE,111,0.0,3.0,64,0.00,,---,0.00,VWS V14.01,2013-01-07 10:50:00,
2013-01-07 03:51:00,35.8,24.1,29.88,ESE,122,3.0,6.0,62,0.00,,---,0.00,VWS V14.01,2013-01-07 10:51:00,
2013-01-07 03:55:00,37.3,23.9,29.88,SE,125,0.0,6.0,58,0.00,,---,0.00,VWS V14.01,2013-01-07 10:55:00,
2013-01-07 03:56:00,38.2,23.5,29.88,SE,126,0.0,0.0,55,0.00,,---,0.00,VWS V14.01,2013-01-07 10:56:00,
2013-01-07 04:00:00,38.9,23.7,29.88,SE,132,0.0,0.0,54,0.00,,---,0.00,VWS V14.01,2013-01-07 11:00:00,
2013-01-07 04:01:00,38.3,21.3,29.88,WNW,298,0.0,5.0,50,0.00,,---,0.00,VWS V14.01,2013-01-07 11:01:00,
2013-01-07 04:05:00,36.4,20.5,29.88,WNW,298,0.0,5.0,52,0.00,,---,0.00,VWS V14.01,2013-01-07 11:05:00,
2013-01-07 04:06:00,34.9,20.4,29.88,WNW,299,0.0,0.0,55,0.00,,---,0.00,VWS V14.01,2013-01-07 11:06:00,
2013-01-07 04:10:00,33.9,20.3,29.88,North,355,0.0,0.0,57,0.00,,---,0.00,VWS V14.01,2013-01-07 11:10:00,
2013-01-07 04:11:00,33.4,20.2,29.88,NE,35,0.0,0.0,58,0.00,,---,0.00,VWS V14.01,2013-01-07 11:11:00,
2013-01-07 04:15:00,32.9,20.2,29.87,NE,35,0.0,0.0,59,0.00,,---,0.00,VWS V14.01,2013-01-07 11:15:00,
2013-01-07 04:16:00,32.1,19.8,29.88,NE,35,0.0,0.0,60,0.00,,---,0.00,VWS V14.01,2013-01-07 11:16:00,
2013-01-07 04:20:00,31.5,20.0,29.87,NE,34,0.0,0.0,62,0.00,,---,0.00,VWS V14.01,2013-01-07 11:20:00,
2013-01-07 04:21:00,31.2,20.1,29.87,NE,34,0.0,0.0,63,0.00,,---,0.00,VWS V14.01,2013-01-07 11:21:00,
2013-01-07 04:25:00,30.9,19.4,29.87,NE,34,0.0,0.0,62,0.00,,---,0.00,VWS V14.01,2013-01-07 11:25:00,
2013-01-07 04:26:00,30.3,19.2,29.87,NE,34,0.0,0.0,63,0.00,,---,0.00,VWS V14.01,2013-01-07 11:26:00,
2013-01-07 04:30:00,30.0,19.3,29.87,NE,34,0.0,0.0,64,0.00,,---,0.00,VWS V14.01,2013-01-07 11:30:00,
2013-01-07 04:31:00,29.8,19.1,29.87,NE,34,0.0,0.0,64,0.00,,---,0.00,VWS V14.01,2013-01-07 11:31:00,
2013-01-07 04:35:00,29.8,19.8,29.87,NE,34,0.0,0.0,66,0.00,,---,0.00,VWS V14.01,2013-01-07 11:35:00,
2013-01-07 04:36:00,29.8,19.8,29.87,NE,34,0.0,0.0,66,0.00,,---,0.00,VWS V14.01,2013-01-07 11:36:00,
2013-01-07 04:40:00,30.0,20.0,29.87,NE,34,0.0,0.0,66,0.00,,---,0.00,VWS V14.01,2013-01-07 11:40:00,
2013-01-07 04:41:00,30.5,20.5,29.87,NNE,33,0.0,0.0,66,0.00,,---,0.00,VWS V14.01,2013-01-07 11:41:00,
2013-01-07 04:45:00,30.9,20.5,29.87,NNE,33,0.0,0.0,65,0.00,,---,0.00,VWS V14.01,2013-01-07 11:45:00,
2013-01-07 04:46:00,31.2,20.5,29.87,NE,34,0.0,0.0,64,0.00,,---,0.00,VWS V14.01,2013-01-07 11:46:00,
2013-01-07 04:50:00,31.2,20.5,29.87,NE,34,0.0,0.0,64,0.00,,---,0.00,VWS V14.01,2013-01-07 11:50:00,
2013-01-07 04:51:00,31.2,20.5,29.87,NNE,33,0.0,0.0,64,0.00,,---,0.00,VWS V14.01,2013-01-07 11:51:00,
2013-01-07 04:55:00,30.6,19.1,29.87,NE,34,0.0,0.0,62,0.00,,---,0.00,VWS V14.01,2013-01-07 11:55:00,
2013-01-07 04:56:00,30.1,19.0,29.87,NE,34,0.0,0.0,63,0.00,,---,0.00,VWS V14.01,2013-01-07 11:56:00,
2013-01-07 05:00:00,29.7,19.4,29.87,NE,34,0.0,0.0,65,0.00,,---,0.00,VWS V14.01,2013-01-07 12:00:00,
2013-01-07 05:01:00,28.9,18.3,29.87,NE,35,0.0,0.0,64,0.00,,---,0.00,VWS V14.01,2013-01-07 12:01:00,
2013-01-07 05:05:00,28.3,18.1,29.87,NE,35,0.0,0.0,65,0.00,,---,0.00,VWS V14.01,2013-01-07 12:05:00,
2013-01-07 05:06:00,28.0,18.1,29.87,NE,35,0.0,0.0,66,0.00,,---,0.00,VWS V14.01,2013-01-07 12:06:00,
2013-01-07 05:10:00,27.8,18.6,29.87,NE,34,0.0,0.0,68,0.00,,---,0.00,VWS V14.01,2013-01-07 12:10:00,
2013-01-07 05:11:00,27.9,19.1,29.87,NE,34,0.0,0.0,69,0.00,,---,0.00,VWS V14.01,2013-01-07 12:11:00,
2013-01-07 05:15:00,27.9,19.1,29.88,NE,34,0.0,0.0,69,0.00,,---,0.00,VWS V14.01,2013-01-07 12:15:00,
2013-01-07 05:16:00,28.1,19.3,29.88,NE,34,0.0,0.0,69,0.00,,---,0.00,VWS V14.01,2013-01-07 12:16:00,
2013-01-07 05:20:00,28.0,19.2,29.89,NE,34,0.0,0.0,69,0.00,,---,0.00,VWS V14.01,2013-01-07 12:20:00,
2013-01-07 05:21:00,28.3,19.8,29.88,NE,34,0.0,0.0,70,0.00,,---,0.00,VWS V14.01,2013-01-07 12:21:00,
2013-01-07 05:25:00,28.2,19.4,29.88,NE,35,0.0,0.0,69,0.00,,---,0.00,VWS V14.01,2013-01-07 12:25:00,
2013-01-07 05:26:00,28.5,20.0,29.88,NE,35,0.0,0.0,70,0.00,,---,0.00,VWS V14.01,2013-01-07 12:26:00,
2013-01-07 05:30:00,29.2,20.3,29.89,NE,34,0.0,0.0,69,0.00,,---,0.00,VWS V14.01,2013-01-07 12:30:00,
2013-01-07 05:31:00,29.5,20.3,29.89,NE,34,0.0,0.0,68,0.00,,---,0.00,VWS V14.01,2013-01-07 12:31:00,
2013-01-07 05:35:00,29.5,19.6,29.89,NE,34,0.0,0.0,66,0.00,,---,0.00,VWS V14.01,2013-01-07 12:35:00,
2013-01-07 05:36:00,29.3,19.7,29.89,NE,34,0.0,0.0,67,0.00,,---,0.00,VWS V14.01,2013-01-07 12:36:00,
2013-01-07 05:40:00,29.3,19.7,29.88,NE,34,0.0,0.0,67,0.00,,---,0.00,VWS V14.01,2013-01-07 12:40:00,
2013-01-07 05:41:00,29.0,19.4,29.88,NE,34,0.0,0.0,67,0.00,,---,0.00,VWS V14.01,2013-01-07 12:41:00,
2013-01-07 05:45:00,29.2,20.0,29.88,NE,34,0.0,0.0,68,0.00,,---,0.00,VWS V14.01,2013-01-07 12:45:00,
2013-01-07 05:46:00,28.7,18.4,29.88,NE,53,0.0,3.0,65,0.00,,---,0.00,VWS V14.01,2013-01-07 12:46:00,
2013-01-07 05:50:00,28.7,20.2,29.88,NE,53,0.0,3.0,70,0.00,,---,0.00,VWS V14.01,2013-01-07 12:50:00,
2013-01-07 05:51:00,28.7,19.5,29.88,NE,53,0.0,0.0,68,0.00,,---,0.00,VWS V14.01,2013-01-07 12:51:00,
2013-01-07 05:55:00,28.5,19.6,29.88,NE,52,0.0,0.0,69,0.00,,---,0.00,VWS V14.01,2013-01-07 12:55:00,
2013-01-07 05:56:00,28.9,20.4,29.89,NE,53,0.0,0.0,70,0.00,,---,0.00,VWS V14.01,2013-01-07 12:56:00,
2013-01-07 06:00:00,28.6,19.4,29.89,NE,53,0.0,0.0,68,0.00,,---,0.00,VWS V14.01,2013-01-07 13:00:00,
2013-01-07 06:01:00,28.0,19.2,29.88,NE,55,0.0,0.0,69,0.00,,---,0.00,VWS V14.01,2013-01-07 13:01:00,
2013-01-07 06:05:00,27.8,19.6,29.89,ENE,60,0.0,0.0,71,0.00,,---,0.00,VWS V14.01,2013-01-07 13:05:00,
2013-01-07 06:06:00,27.9,20.1,29.88,ENE,70,2.0,3.0,72,0.00,,---,0.00,VWS V14.01,2013-01-07 13:06:00,
2013-01-07 06:10:00,28.5,20.6,29.88,ENE,74,0.0,3.0,72,0.00,,---,0.00,VWS V14.01,2013-01-07 13:10:00,
2013-01-07 06:11:00,28.9,20.7,29.88,ENE,78,0.0,0.0,71,0.00,,---,0.00,VWS V14.01,2013-01-07 13:11:00,
2013-01-07 06:15:00,29.1,20.9,29.88,ENE,78,0.0,0.0,71,0.00,,---,0.00,VWS V14.01,2013-01-07 13:15:00,
2013-01-07 06:16:00,29.2,21.0,29.88,ENE,78,0.0,0.0,71,0.00,,---,0.00,VWS V14.01,2013-01-07 13:16:00,
2013-01-07 06:20:00,29.2,21.0,29.88,ENE,78,0.0,0.0,71,0.00,,---,0.00,VWS V14.01,2013-01-07 13:20:00,
2013-01-07 06:21:00,29.3,21.1,29.88,ENE,78,0.0,0.0,71,0.00,,---,0.00,VWS V14.01,2013-01-07 13:21:00,
2013-01-07 06:25:00,29.3,21.1,29.88,ENE,78,0.0,0.0,71,0.00,,---,0.00,VWS V14.01,2013-01-07 13:25:00,
2013-01-07 06:26:00,29.2,21.0,29.88,ENE,78,0.0,0.0,71,0.00,,---,0.00,VWS V14.01,2013-01-07 13:26:00,
2013-01-07 06:30:00,29.2,21.0,29.88,ENE,78,0.0,0.0,71,0.00,,---,0.00,VWS V14.01,2013-01-07 13:30:00,
2013-01-07 06:31:00,29.2,21.0,29.88,ENE,78,0.0,0.0,71,0.00,,---,0.00,VWS V14.01,2013-01-07 13:31:00,
2013-01-07 06:35:00,29.2,21.0,29.88,ENE,78,0.0,0.0,71,0.00,,---,0.00,VWS V14.01,2013-01-07 13:35:00,
2013-01-07 06:36:00,29.1,20.9,29.88,ENE,78,0.0,0.0,71,0.00,,---,0.00,VWS V14.01,2013-01-07 13:36:00,
2013-01-07 06:40:00,29.0,20.8,29.88,ENE,78,0.0,0.0,71,0.00,,---,0.00,VWS V14.01,2013-01-07 13:40:00,
2013-01-07 06:41:00,28.8,20.6,29.88,ENE,78,0.0,0.0,71,0.00,,---,0.00,VWS V14.01,2013-01-07 13:41:00,
2013-01-07 06:45:00,28.7,20.5,29.88,ENE,78,0.0,0.0,71,0.00,,---,0.00,VWS V14.01,2013-01-07 13:45:00,
2013-01-07 06:46:00,28.6,20.4,29.88,ENE,78,0.0,0.0,71,0.00,,---,0.00,VWS V14.01,2013-01-07 13:46:00,
2013-01-07 06:50:00,28.5,20.6,29.88,ENE,78,0.0,0.0,72,0.00,,---,0.00,VWS V14.01,2013-01-07 13:50:00,
2013-01-07 06:51:00,28.5,20.6,29.88,ENE,78,0.0,0.0,72,0.00,,---,0.00,VWS V14.01,2013-01-07 13:51:00,
2013-01-07 06:55:00,28.5,20.6,29.88,ENE,78,0.0,0.0,72,0.00,,---,0.00,VWS V14.01,2013-01-07 13:55:00,
2013-01-07 06:56:00,28.5,20.6,29.88,ENE,78,0.0,0.0,72,0.00,,---,0.00,VWS V14.01,2013-01-07 13:56:00,
2013-01-07 07:00:00,28.4,20.2,29.88,ENE,78,0.0,0.0,71,0.00,,---,0.00,VWS V14.01,2013-01-07 14:00:00,
2013-01-07 07:01:00,28.1,20.2,29.88,ENE,78,0.0,0.0,72,0.00,,---,0.00,VWS V14.01,2013-01-07 14:01:00,
2013-01-07 07:05:00,27.9,20.1,29.88,ENE,78,0.0,0.0,72,0.00,,---,0.00,VWS V14.01,2013-01-07 14:05:00,
2013-01-07 07:06:00,27.6,19.8,29.88,ENE,78,0.0,0.0,72,0.00,,---,0.00,VWS V14.01,2013-01-07 14:06:00,
2013-01-07 07:10:00,27.4,19.9,29.88,ENE,78,0.0,0.0,73,0.00,,---,0.00,VWS V14.01,2013-01-07 14:10:00,
2013-01-07 07:11:00,27.2,19.7,29.88,ENE,78,0.0,0.0,73,0.00,,---,0.00,VWS V14.01,2013-01-07 14:11:00,
2013-01-07 07:15:00,26.9,19.4,29.88,ENE,78,0.0,2.0,73,0.00,,---,0.00,VWS V14.01,2013-01-07 14:15:00,
2013-01-07 07:16:00,26.6,19.4,29.88,ENE,78,0.0,0.0,74,0.00,,---,0.00,VWS V14.01,2013-01-07 14:16:00,
2013-01-07 07:20:00,26.7,19.9,29.88,ENE,78,0.0,0.0,75,0.00,,---,0.00,VWS V14.01,2013-01-07 14:20:00,
2013-01-07 07:21:00,26.9,20.0,29.88,ENE,59,3.0,5.0,75,0.00,,---,0.00,VWS V14.01,2013-01-07 14:21:00,
2013-01-07 07:25:00,26.8,19.6,29.88,ENE,60,0.0,6.0,74,0.00,,---,0.00,VWS V14.01,2013-01-07 14:25:00,
2013-01-07 07:26:00,27.0,19.8,29.88,ENE,67,5.0,6.0,74,0.00,,---,0.00,VWS V14.01,2013-01-07 14:26:00,
2013-01-07 07:30:00,27.4,20.2,29.88,ENE,67,0.0,6.0,74,0.00,,---,0.00,VWS V14.01,2013-01-07 14:30:00,
2013-01-07 07:31:00,27.6,20.1,29.88,ENE,60,3.0,4.0,73,0.00,,---,0.00,VWS V14.01,2013-01-07 14:31:00,
2013-01-07 07:35:00,28.1,20.6,29.88,ENE,60,0.0,4.0,73,0.00,,---,0.00,VWS V14.01,2013-01-07 14:35:00,
2013-01-07 07:36:00,28.4,20.5,29.88,ENE,60,0.0,0.0,72,0.00,,---,0.00,VWS V14.01,2013-01-07 14:36:00,
2013-01-07 07:40:00,28.5,20.6,29.88,ENE,60,0.0,0.0,72,0.00,,---,0.00,VWS V14.01,2013-01-07 14:40:00,
2013-01-07 07:41:00,28.7,20.8,29.88,ENE,60,0.0,0.0,72,0.00,,---,0.00,VWS V14.01,2013-01-07 14:41:00,
2013-01-07 07:45:00,29.0,21.1,29.88,ENE,60,0.0,0.0,72,0.00,,---,0.00,VWS V14.01,2013-01-07 14:45:00,
2013-01-07 07:46:00,29.4,21.5,29.88,ENE,60,0.0,0.0,72,0.00,,---,0.00,VWS V14.01,2013-01-07 14:46:00,
2013-01-07 07:50:00,29.5,21.3,29.88,ENE,60,0.0,0.0,71,0.00,,---,0.00,VWS V14.01,2013-01-07 14:50:00,
2013-01-07 07:51:00,29.4,20.8,29.88,ENE,60,0.0,0.0,70,0.00,,---,0.00,VWS V14.01,2013-01-07 14:51:00,
2013-01-07 07:55:00,29.4,21.2,29.88,ENE,60,0.0,0.0,71,0.00,,---,0.00,VWS V14.01,2013-01-07 14:55:00,
2013-01-07 07:56:00,29.3,20.7,29.88,ENE,60,0.0,0.0,70,0.00,,---,0.00,VWS V14.01,2013-01-07 14:56:00,
2013-01-07 08:00:00,29.4,21.2,29.88,ENE,60,0.0,0.0,71,0.00,,---,0.00,VWS V14.01,2013-01-07 15:00:00,
2013-01-07 08:01:00,29.7,21.5,29.88,ENE,60,0.0,0.0,71,0.00,,---,0.00,VWS V14.01,2013-01-07 15:01:00,
2013-01-07 08:05:00,30.1,21.9,29.88,ENE,60,0.0,0.0,71,0.00,,---,0.00,VWS V14.01,2013-01-07 15:05:00,
2013-01-07 08:06:00,30.5,21.9,29.88,ENE,60,0.0,0.0,70,0.00,,---,0.00,VWS V14.01,2013-01-07 15:06:00,
2013-01-07 08:10:00,31.0,22.4,29.88,ENE,60,0.0,0.0,70,0.00,,---,0.00,VWS V14.01,2013-01-07 15:10:00,
2013-01-07 08:11:00,31.6,22.6,29.88,ENE,60,0.0,0.0,69,0.00,,---,0.00,VWS V14.01,2013-01-07 15:11:00,
2013-01-07 08:15:00,32.2,23.2,29.88,ENE,60,0.0,0.0,69,0.00,,---,0.00,VWS V14.01,2013-01-07 15:15:00,
2013-01-07 08:16:00,32.9,23.5,29.88,ENE,60,0.0,0.0,68,0.00,,---,0.00,VWS V14.01,2013-01-07 15:16:00,
2013-01-07 08:20:00,33.5,24.1,29.88,ENE,60,0.0,0.0,68,0.00,,---,0.00,VWS V14.01,2013-01-07 15:20:00,
2013-01-07 08:21:00,34.1,24.7,29.88,ENE,60,0.0,0.0,68,0.00,,---,0.00,VWS V14.01,2013-01-07 15:21:00,
2013-01-07 08:25:00,34.8,24.6,29.88,ENE,60,0.0,0.0,66,0.00,,---,0.00,VWS V14.01,2013-01-07 15:25:00,
2013-01-07 08:26:00,35.6,25.0,29.88,ENE,60,0.0,0.0,65,0.00,,---,0.00,VWS V14.01,2013-01-07 15:26:00,
2013-01-07 08:30:00,36.7,25.3,29.88,ENE,60,0.0,0.0,63,0.00,,---,0.00,VWS V14.01,2013-01-07 15:30:00,
2013-01-07 08:31:00,37.3,25.1,29.88,ENE,60,0.0,0.0,61,0.00,,---,0.00,VWS V14.01,2013-01-07 15:31:00,
2013-01-07 08:35:00,37.6,25.0,29.88,ENE,60,0.0,0.0,60,0.00,,---,0.00,VWS V14.01,2013-01-07 15:35:00,
2013-01-07 08:36:00,38.0,25.0,29.88,ENE,60,0.0,0.0,59,0.00,,---,0.00,VWS V14.01,2013-01-07 15:36:00,
2013-01-07 08:40:00,38.4,24.9,29.88,ENE,60,0.0,0.0,58,0.00,,---,0.00,VWS V14.01,2013-01-07 15:40:00,
2013-01-07 08:41:00,38.7,24.8,29.88,ENE,60,0.0,0.0,57,0.00,,---,0.00,VWS V14.01,2013-01-07 15:41:00,
2013-01-07 08:45:00,39.1,25.2,29.88,ENE,60,0.0,0.0,57,0.00,,---,0.00,VWS V14.01,2013-01-07 15:45:00,
2013-01-07 08:46:00,39.6,25.6,29.88,ENE,60,0.0,0.0,57,0.00,,---,0.00,VWS V14.01,2013-01-07 15:46:00,
2013-01-07 08:50:00,40.2,25.3,29.88,ENE,60,0.0,0.0,55,0.00,,---,0.00,VWS V14.01,2013-01-07 15:50:00,
2013-01-07 08:51:00,40.5,25.2,29.88,ENE,60,0.0,0.0,54,0.00,,---,0.00,VWS V14.01,2013-01-07 15:51:00,
2013-01-07 08:55:00,40.9,25.1,29.88,ENE,60,0.0,0.0,53,0.00,,---,0.00,VWS V14.01,2013-01-07 15:55:00,
2013-01-07 08:56:00,41.4,25.6,29.88,ENE,60,0.0,0.0,53,0.00,,---,0.00,VWS V14.01,2013-01-07 15:56:00,
2013-01-07 09:00:00,41.9,25.1,29.88,ENE,60,0.0,0.0,51,0.00,,---,0.00,VWS V14.01,2013-01-07 16:00:00,
2013-01-07 09:01:00,42.3,25.0,29.88,ENE,60,0.0,0.0,50,0.00,,---,0.00,VWS V14.01,2013-01-07 16:01:00,
2013-01-07 09:05:00,42.4,25.1,29.88,ENE,60,0.0,0.0,50,0.00,,---,0.00,VWS V14.01,2013-01-07 16:05:00,
2013-01-07 09:06:00,42.4,24.6,29.88,ENE,60,0.0,0.0,49,0.00,,---,0.00,VWS V14.01,2013-01-07 16:06:00,
2013-01-07 09:10:00,42.2,24.4,29.88,ENE,60,0.0,0.0,49,0.00,,---,0.00,VWS V14.01,2013-01-07 16:10:00,
2013-01-07 09:11:00,42.2,24.4,29.88,ENE,60,0.0,0.0,49,0.00,,---,0.00,VWS V14.01,2013-01-07 16:11:00,
2013-01-07 09:15:00,42.2,23.9,29.88,NE,55,0.0,2.0,48,0.00,,---,0.00,VWS V14.01,2013-01-07 16:15:00,
2013-01-07 09:16:00,42.3,24.0,29.88,NE,55,0.0,0.0,48,0.00,,---,0.00,VWS V14.01,2013-01-07 16:16:00,
2013-01-07 09:20:00,42.2,23.9,29.88,NNW,338,0.0,4.0,48,0.00,,---,0.00,VWS V14.01,2013-01-07 16:20:00,
2013-01-07 09:21:00,42.3,24.0,29.88,NNW,339,0.0,0.0,48,0.00,,---,0.00,VWS V14.01,2013-01-07 16:21:00,
2013-01-07 09:25:00,42.3,24.5,29.89,West,267,4.0,5.0,49,0.00,,---,0.00,VWS V14.01,2013-01-07 16:25:00,
2013-01-07 09:26:00,41.8,24.5,29.88,WNW,302,6.0,6.0,50,0.00,,---,0.00,VWS V14.01,2013-01-07 16:26:00,
2013-01-07 09:30:00,41.8,24.5,29.88,WNW,302,0.0,6.0,50,0.00,,---,0.00,VWS V14.01,2013-01-07 16:30:00,
2013-01-07 09:31:00,42.0,24.2,29.89,NW,304,3.0,6.0,49,0.00,,---,0.00,VWS V14.01,2013-01-07 16:31:00,
2013-01-07 09:35:00,42.0,24.7,29.88,WNW,295,2.0,6.0,50,0.00,,---,0.00,VWS V14.01,2013-01-07 16:35:00,
2013-01-07 09:36:00,42.1,24.8,29.88,WNW,295,1.0,4.0,50,0.00,,---,0.00,VWS V14.01,2013-01-07 16:36:00,
2013-01-07 09:40:00,42.4,24.6,29.89,WNW,297,2.0,5.0,49,0.00,,---,0.00,VWS V14.01,2013-01-07 16:40:00,
2013-01-07 09:41:00,42.6,24.8,29.89,WNW,301,0.0,6.0,49,0.00,,---,0.00,VWS V14.01,2013-01-07 16:41:00,
2013-01-07 09:45:00,42.9,25.1,29.89,NNW,340,0.0,6.0,49,0.00,,---,0.00,VWS V14.01,2013-01-07 16:45:00,
2013-01-07 09:46:00,43.1,24.8,29.89,NNW,337,4.0,4.0,48,0.00,,---,0.00,VWS V14.01,2013-01-07 16:46:00,
2013-01-07 09:50:00,43.2,24.9,29.89,North,350,5.0,5.0,48,0.00,,---,0.00,VWS V14.01,2013-01-07 16:50:00,
2013-01-07 09:51:00,43.3,24.9,29.89,NNW,348,0.0,6.0,48,0.00,,---,0.00,VWS V14.01,2013-01-07 16:51:00,
2013-01-07 09:55:00,43.5,25.1,29.89,NNW,348,1.0,6.0,48,0.00,,---,0.00,VWS V14.01,2013-01-07 16:55:00,
2013-01-07 09:56:00,43.8,24.9,29.89,NNW,346,5.0,6.0,47,0.00,,---,0.00,VWS V14.01,2013-01-07 16:56:00,
2013-01-07 10:00:00,44.1,24.7,29.89,NNW,346,0.0,6.0,46,0.00,,---,0.00,VWS V14.01,2013-01-07 17:00:00,
2013-01-07 10:01:00,44.2,25.3,29.89,NNW,342,7.0,7.0,47,0.00,,---,0.00,VWS V14.01,2013-01-07 17:01:00,
2013-01-07 10:05:00,44.1,25.2,29.89,NNW,341,0.0,7.0,47,0.00,,---,0.00,VWS V14.01,2013-01-07 17:05:00,
2013-01-07 10:06:00,44.1,25.2,29.90,North,349,1.0,5.0,47,0.00,,---,0.00,VWS V14.01,2013-01-07 17:06:00,
2013-01-07 10:10:00,44.1,24.7,29.89,North,350,3.0,5.0,46,0.00,,---,0.00,VWS V14.01,2013-01-07 17:10:00,
2013-01-07 10:11:00,44.3,24.8,29.90,North,350,0.0,4.0,46,0.00,,---,0.00,VWS V14.01,2013-01-07 17:11:00,
2013-01-07 10:15:00,44.6,25.1,29.89,NNW,334,0.0,6.0,46,0.00,,---,0.00,VWS V14.01,2013-01-07 17:15:00,
2013-01-07 10:16:00,45.0,25.5,29.89,NW,320,5.0,7.0,46,0.00,,---,0.00,VWS V14.01,2013-01-07 17:16:00,
2013-01-07 10:20:00,45.0,25.0,29.89,NW,323,2.0,8.0,45,0.00,,---,0.00,VWS V14.01,2013-01-07 17:20:00,
2013-01-07 10:21:00,45.1,25.0,29.89,NNE,15,4.0,5.0,45,0.00,,---,0.00,VWS V14.01,2013-01-07 17:21:00,
2013-01-07 10:25:00,45.3,25.2,29.89,NE,49,0.0,5.0,45,0.00,,---,0.00,VWS V14.01,2013-01-07 17:25:00,
2013-01-07 10:26:00,45.6,25.0,29.89,NNE,32,0.0,4.0,44,0.00,,---,0.00,VWS V14.01,2013-01-07 17:26:00,
2013-01-07 10:30:00,45.9,25.2,29.89,NE,40,0.0,4.0,44,0.00,,---,0.00,VWS V14.01,2013-01-07 17:30:00,
2013-01-07 10:31:00,46.1,24.9,29.88,NE,40,0.0,0.0,43,0.00,,---,0.00,VWS V14.01,2013-01-07 17:31:00,
2013-01-07 10:35:00,46.2,25.0,29.89,NE,40,0.0,0.0,43,0.00,,---,0.00,VWS V14.01,2013-01-07 17:35:00,
2013-01-07 10:36:00,46.5,25.2,29.89,NE,40,0.0,0.0,43,0.00,,---,0.00,VWS V14.01,2013-01-07 17:36:00,
2013-01-07 10:40:00,46.8,24.9,29.89,North,350,0.0,6.0,42,0.00,,---,0.00,VWS V14.01,2013-01-07 17:40:00,
2013-01-07 10:41:00,46.9,25.0,29.89,North,350,0.0,0.0,42,0.00,,---,0.00,VWS V14.01,2013-01-07 17:41:00,
2013-01-07 10:45:00,47.4,25.5,29.89,North,350,0.0,0.0,42,0.00,,---,0.00,VWS V14.01,2013-01-07 17:45:00,
2013-01-07 10:50:00,47.5,25.0,29.88,NW,321,3.0,6.0,41,0.00,,---,0.00,VWS V14.01,2013-01-07 17:50:00,
2013-01-07 10:55:00,47.3,24.8,29.89,NNW,329,1.0,1.0,41,0.00,,---,0.00,VWS V14.01,2013-01-07 17:55:00,
2013-01-07 11:00:00,47.4,24.3,29.88,NNW,344,0.0,0.0,40,0.00,,---,0.00,VWS V14.01,2013-01-07 18:00:00,
2013-01-07 11:05:00,48.1,24.9,29.88,North,355,4.0,5.0,40,0.00,,---,0.00,VWS V14.01,2013-01-07 18:05:00,
2013-01-07 11:10:00,48.3,25.1,29.87,NNW,339,0.0,0.0,40,0.00,,---,0.00,VWS V14.01,2013-01-07 18:10:00,
2013-01-07 11:15:00,48.8,25.0,29.87,NNE,16,0.0,0.0,39,0.00,,---,0.00,VWS V14.01,2013-01-07 18:15:00,
2013-01-07 11:20:00,49.1,25.2,29.87,NNE,25,0.0,4.0,39,0.00,,---,0.00,VWS V14.01,2013-01-07 18:20:00,
2013-01-07 11:25:00,49.3,24.8,29.87,NW,324,5.0,7.0,38,0.00,,---,0.00,VWS V14.01,2013-01-07 18:25:00,
2013-01-07 11:30:00,49.2,24.7,29.86,NNE,26,0.0,1.0,38,0.00,,---,0.00,VWS V14.01,2013-01-07 18:30:00,
2013-01-07 11:35:00,49.9,24.7,29.85,NNE,29,0.0,0.0,37,0.00,,---,0.00,VWS V14.01,2013-01-07 18:35:00,
2013-01-07 11:40:00,50.0,23.4,29.85,NNE,26,0.0,0.0,35,0.00,,---,0.00,VWS V14.01,2013-01-07 18:40:00,
2013-01-07 11:45:00,50.2,24.3,29.85,West,278,6.0,6.0,36,0.00,,---,0.00,VWS V14.01,2013-01-07 18:45:00,
2013-01-07 11:50:00,49.7,23.9,29.85,West,269,2.0,5.0,36,0.00,,---,0.00,VWS V14.01,2013-01-07 18:50:00,
2013-01-07 11:55:00,50.0,24.1,29.85,WSW,237,0.0,5.0,36,0.00,,---,0.00,VWS V14.01,2013-01-07 18:55:00,
2013-01-07 12:00:00,50.5,23.2,29.85,SSW,202,0.0,5.0,34,0.00,,---,0.00,VWS V14.01,2013-01-07 19:00:00,
2013-01-07 12:05:00,51.1,23.7,29.84,SSW,202,0.0,0.0,34,0.00,,---,0.00,VWS V14.01,2013-01-07 19:05:00,
2013-01-07 12:10:00,51.2,23.1,29.84,West,273,6.0,7.0,33,0.00,,---,0.00,VWS V14.01,2013-01-07 19:10:00,
2013-01-07 12:15:00,51.0,23.6,29.84,WSW,238,3.0,7.0,34,0.00,,---,0.00,VWS V14.01,2013-01-07 19:15:00,
2013-01-07 12:20:00,51.0,22.9,29.84,SSW,209,4.0,5.0,33,0.00,,---,0.00,VWS V14.01,2013-01-07 19:20:00,
2013-01-07 12:25:00,51.2,23.1,29.83,SW,232,3.0,6.0,33,0.00,,---,0.00,VWS V14.01,2013-01-07 19:25:00,
2013-01-07 12:30:00,51.4,22.5,29.83,SW,230,0.0,0.0,32,0.00,,---,0.00,VWS V14.01,2013-01-07 19:30:00,
2013-01-07 12:35:00,52.1,23.2,29.83,SW,217,2.0,4.0,32,0.00,,---,0.00,VWS V14.01,2013-01-07 19:35:00,
2013-01-07 12:40:00,51.8,22.1,29.83,WSW,252,0.0,6.0,31,0.00,,---,0.00,VWS V14.01,2013-01-07 19:40:00,
2013-01-07 12:45:00,51.8,22.1,29.82,SSW,196,0.0,0.0,31,0.00,,---,0.00,VWS V14.01,2013-01-07 19:45:00,
2013-01-07 12:50:00,52.4,22.7,29.82,SSW,198,0.0,0.0,31,0.00,,---,0.00,VWS V14.01,2013-01-07 19:50:00,
2013-01-07 12:55:00,53.5,22.9,29.82,SSE,155,0.0,0.0,30,0.00,,---,0.00,VWS V14.01,2013-01-07 19:55:00,
2013-01-07 13:00:00,53.6,21.3,29.81,SSE,161,0.0,7.0,28,0.00,,---,0.00,VWS V14.01,2013-01-07 20:00:00,
2013-01-07 13:05:00,54.2,21.0,29.81,East,90,5.0,6.0,27,0.00,,---,0.00,VWS V14.01,2013-01-07 20:05:00,
2013-01-07 13:10:00,54.0,20.8,29.81,ESE,119,1.0,5.0,27,0.00,,---,0.00,VWS V14.01,2013-01-07 20:10:00,
2013-01-07 13:15:00,53.9,20.7,29.80,SSE,154,0.0,9.0,27,0.00,,---,0.00,VWS V14.01,2013-01-07 20:15:00,
2013-01-07 13:19:00,54.2,21.0,29.80,SE,140,5.0,6.0,27,0.00,,---,0.00,VWS V14.01,2013-01-07 20:19:00,
2013-01-07 13:20:00,54.1,20.9,29.80,SE,138,6.0,10.0,27,0.00,,---,0.00,VWS V14.01,2013-01-07 20:20:00,
2013-01-07 13:24:00,54.4,20.2,29.80,East,93,6.0,6.0,26,0.00,,---,0.00,VWS V14.01,2013-01-07 20:24:00,
2013-01-07 13:25:00,54.4,20.2,29.80,SE,142,0.0,11.0,26,0.00,,---,0.00,VWS V14.01,2013-01-07 20:25:00,
2013-01-07 13:29:00,54.6,19.5,29.80,SE,129,5.0,11.0,25,0.00,,---,0.00,VWS V14.01,2013-01-07 20:29:00,
2013-01-07 13:30:00,54.5,19.4,29.80,ESE,120,6.0,6.0,25,0.00,,---,0.00,VWS V14.01,2013-01-07 20:30:00,
2013-01-07 13:34:00,54.8,19.7,29.79,South,191,1.0,6.0,25,0.00,,---,0.00,VWS V14.01,2013-01-07 20:34:00,
2013-01-07 13:35:00,54.8,19.7,29.79,South,190,6.0,11.0,25,0.00,,---,0.00,VWS V14.01,2013-01-07 20:35:00,
2013-01-07 13:39:00,54.9,19.8,29.79,South,180,5.0,8.0,25,0.00,,---,0.00,VWS V14.01,2013-01-07 20:39:00,
2013-01-07 13:40:00,55.0,19.8,29.79,South,178,7.0,12.0,25,0.00,,---,0.00,VWS V14.01,2013-01-07 20:40:00,
2013-01-07 13:44:00,55.0,17.9,29.79,East,101,4.0,6.0,23,0.00,,---,0.00,VWS V14.01,2013-01-07 20:44:00,
2013-01-07 13:45:00,55.0,17.9,29.79,SE,141,4.0,10.0,23,0.00,,---,0.00,VWS V14.01,2013-01-07 20:45:00,
2013-01-07 13:49:00,55.1,19.0,29.79,SSE,155,1.0,2.0,24,0.00,,---,0.00,VWS V14.01,2013-01-07 20:49:00,
2013-01-07 13:50:00,55.1,19.0,29.79,SSE,155,2.0,9.0,24,0.00,,---,0.00,VWS V14.01,2013-01-07 20:50:00,
2013-01-07 13:54:00,54.9,19.8,29.79,SSW,194,4.0,4.0,25,0.00,,---,0.00,VWS V14.01,2013-01-07 20:54:00,
2013-01-07 13:55:00,55.0,19.8,29.79,SSE,156,4.0,12.0,25,0.00,,---,0.00,VWS V14.01,2013-01-07 20:55:00,
2013-01-07 13:59:00,54.9,18.8,29.79,South,178,4.0,5.0,24,0.00,,---,0.00,VWS V14.01,2013-01-07 20:59:00,
2013-01-07 14:00:00,54.9,18.8,29.79,South,171,5.0,9.0,24,0.00,,---,0.00,VWS V14.01,2013-01-07 21:00:00,
2013-01-07 14:04:00,55.0,18.9,29.79,SE,142,0.0,0.0,24,0.00,,---,0.00,VWS V14.01,2013-01-07 21:04:00,
2013-01-07 14:05:00,55.0,18.9,29.79,SE,142,0.0,9.0,24,0.00,,---,0.00,VWS V14.01,2013-01-07 21:05:00,
2013-01-07 14:09:00,54.9,17.8,29.79,SSE,152,0.0,6.0,23,0.00,,---,0.00,VWS V14.01,2013-01-07 21:09:00,
2013-01-07 14:10:00,55.0,17.9,29.79,SE,128,1.0,8.0,23,0.00,,---,0.00,VWS V14.01,2013-01-07 21:10:00,
2013-01-07 14:14:00,55.0,17.9,29.79,East,95,4.0,6.0,23,0.00,,---,0.00,VWS V14.01,2013-01-07 21:14:00,
2013-01-07 14:15:00,55.1,17.0,29.79,East,95,5.0,7.0,22,0.00,,---,0.00,VWS V14.01,2013-01-07 21:15:00,
2013-01-07 14:19:00,55.1,19.0,29.79,SSW,194,4.0,5.0,24,0.00,,---,0.00,VWS V14.01,2013-01-07 21:19:00,
2013-01-07 14:20:00,55.1,19.0,29.79,WSW,242,3.0,9.0,24,0.00,,---,0.00,VWS V14.01,2013-01-07 21:20:00,
2013-01-07 14:24:00,55.1,19.0,29.78,SW,214,0.0,4.0,24,0.00,,---,0.00,VWS V14.01,2013-01-07 21:24:00,
2013-01-07 14:25:00,55.1,19.0,29.78,SW,214,4.0,6.0,24,0.00,,---,0.00,VWS V14.01,2013-01-07 21:25:00,
2013-01-07 14:29:00,55.1,19.0,29.78,SSE,153,2.0,3.0,24,0.00,,---,0.00,VWS V14.01,2013-01-07 21:29:00,
2013-01-07 14:30:00,55.1,19.0,29.78,South,190,2.0,4.0,24,0.00,,---,0.00,VWS V14.01,2013-01-07 21:30:00,
2013-01-07 14:34:00,55.3,18.1,29.78,SSE,153,0.0,2.0,23,0.00,,---,0.00,VWS V14.01,2013-01-07 21:34:00,
2013-01-07 14:35:00,55.3,18.2,29.78,SSE,153,0.0,3.0,23,0.00,,---,0.00,VWS V14.01,2013-01-07 21:35:00,
2013-01-07 14:39:00,55.5,18.3,29.78,SSE,153,0.0,0.0,23,0.00,,---,0.00,VWS V14.01,2013-01-07 21:39:00,
2013-01-07 14:40:00,55.5,18.3,29.78,SSE,153,0.0,2.0,23,0.00,,---,0.00,VWS V14.01,2013-01-07 21:40:00,
2013-01-07 14:44:00,55.8,22.3,29.78,ENE,63,8.0,9.0,27,0.00,,---,0.00,VWS V14.01,2013-01-07 21:44:00,
2013-01-07 14:45:00,55.8,20.5,29.78,NE,56,6.0,7.0,25,0.00,,---,0.00,VWS V14.01,2013-01-07 21:45:00,
2013-01-07 14:49:00,55.5,23.0,29.78,NW,318,0.0,0.0,28,0.00,,---,0.00,VWS V14.01,2013-01-07 21:49:00,
2013-01-07 14:50:00,55.6,23.0,29.78,NW,318,0.0,22.0,28,0.00,,---,0.00,VWS V14.01,2013-01-07 21:50:00,
2013-01-07 14:54:00,55.1,22.6,29.78,NE,49,7.0,7.0,28,0.00,,---,0.00,VWS V14.01,2013-01-07 21:54:00,
2013-01-07 14:55:00,55.1,22.6,29.78,East,84,0.0,10.0,28,0.00,,---,0.00,VWS V14.01,2013-01-07 21:55:00,
2013-01-07 14:59:00,54.8,21.5,29.78,NE,55,1.0,7.0,27,0.00,,---,0.00,VWS V14.01,2013-01-07 21:59:00,
2013-01-07 15:00:00,54.8,21.5,29.78,NE,56,4.0,12.0,27,0.00,,---,0.00,VWS V14.01,2013-01-07 22:00:00,
2013-01-07 15:04:00,54.6,22.2,29.78,ENE,74,5.0,5.0,28,0.00,,---,0.00,VWS V14.01,2013-01-07 22:04:00,
2013-01-07 15:05:00,54.7,22.2,29.78,ENE,63,5.0,9.0,28,0.00,,---,0.00,VWS V14.01,2013-01-07 22:05:00,
2013-01-07 15:09:00,54.4,21.1,29.78,NE,34,0.0,1.0,27,0.00,,---,0.00,VWS V14.01,2013-01-07 22:09:00,
2013-01-07 15:10:00,54.4,21.1,29.78,NE,34,0.0,8.0,27,0.00,,---,0.00,VWS V14.01,2013-01-07 22:10:00,
2013-01-07 15:14:00,54.7,21.4,29.78,ENE,57,3.0,3.0,27,0.00,,---,0.00,VWS V14.01,2013-01-07 22:14:00,
2013-01-07 15:15:00,54.7,21.4,29.78,NE,55,3.0,10.0,27,0.00,,---,0.00,VWS V14.01,2013-01-07 22:15:00,
2013-01-07 15:19:00,55.0,19.8,29.78,North,11,4.0,4.0,25,0.00,,---,0.00,VWS V14.01,2013-01-07 22:19:00,
2013-01-07 15:20:00,55.0,19.8,29.78,North,11,2.0,7.0,25,0.00,,---,0.00,VWS V14.01,2013-01-07 22:20:00,
2013-01-07 15:24:00,55.2,20.0,29.78,North,360,2.0,4.0,25,0.00,,---,0.00,VWS V14.01,2013-01-07 22:24:00,
2013-01-07 15:25:00,55.1,19.9,29.78,North,360,4.0,4.0,25,0.00,,---,0.00,VWS V14.01,2013-01-07 22:25:00,
2013-01-07 15:29:00,55.2,20.9,29.78,ENE,61,3.0,5.0,26,0.00,,---,0.00,VWS V14.01,2013-01-07 22:29:00,
2013-01-07 15:30:00,55.3,21.9,29.78,NE,51,4.0,9.0,27,0.00,,---,0.00,VWS V14.01,2013-01-07 22:30:00,
2013-01-07 15:34:00,55.0,20.8,29.79,NE,56,4.0,6.0,26,0.00,,---,0.00,VWS V14.01,2013-01-07 22:34:00,
2013-01-07 15:35:00,55.0,20.8,29.78,NE,55,2.0,8.0,26,0.00,,---,0.00,VWS V14.01,2013-01-07 22:35:00,
2013-01-07 15:39:00,55.1,22.6,29.78,NE,55,5.0,10.0,28,0.00,,---,0.00,VWS V14.01,2013-01-07 22:39:00,
2013-01-07 15:40:00,55.1,22.6,29.78,NE,48,3.0,6.0,28,0.00,,---,0.00,VWS V14.01,2013-01-07 22:40:00,
2013-01-07 15:44:00,54.8,23.2,29.79,ENE,58,4.0,6.0,29,0.00,,---,0.00,VWS V14.01,2013-01-07 22:44:00,
2013-01-07 15:45:00,54.8,22.3,29.79,ENE,58,0.0,10.0,28,0.00,,---,0.00,VWS V14.01,2013-01-07 22:45:00,
2013-01-07 15:49:00,55.0,23.4,29.79,North,360,3.0,3.0,29,0.00,,---,0.00,VWS V14.01,2013-01-07 22:49:00,
2013-01-07 15:50:00,55.0,23.4,29.79,North,350,1.0,6.0,29,0.00,,---,0.00,VWS V14.01,2013-01-07 22:50:00,
2013-01-07 15:54:00,55.2,23.5,29.79,North,355,3.0,6.0,29,0.00,,---,0.00,VWS V14.01,2013-01-07 22:54:00,
2013-01-07 15:55:00,55.2,23.5,29.79,North,355,5.0,5.0,29,0.00,,---,0.00,VWS V14.01,2013-01-07 22:55:00,
2013-01-07 15:59:00,55.2,24.3,29.79,NE,49,3.0,6.0,30,0.00,,---,0.00,VWS V14.01,2013-01-07 22:59:00,
2013-01-07 16:00:00,55.3,24.4,29.78,ENE,57,6.0,6.0,30,0.00,,---,0.00,VWS V14.01,2013-01-07 23:00:00,
2013-01-07 16:04:00,54.9,24.1,29.78,NE,51,2.0,9.0,30,0.00,,---,0.00,VWS V14.01,2013-01-07 23:04:00,
2013-01-07 16:05:00,55.1,24.2,29.78,ENE,57,6.0,11.0,30,0.00,,---,0.00,VWS V14.01,2013-01-07 23:05:00,
2013-01-07 16:09:00,54.7,23.9,29.78,NNE,18,1.0,3.0,30,0.00,,---,0.00,VWS V14.01,2013-01-07 23:09:00,
2013-01-07 16:10:00,54.7,23.9,29.79,NNE,21,0.0,9.0,30,0.00,,---,0.00,VWS V14.01,2013-01-07 23:10:00,
2013-01-07 16:14:00,54.8,23.2,29.79,NE,51,1.0,2.0,29,0.00,,---,0.00,VWS V14.01,2013-01-07 23:14:00,
2013-01-07 16:15:00,54.8,23.2,29.79,NE,50,0.0,6.0,29,0.00,,---,0.00,VWS V14.01,2013-01-07 23:15:00,
2013-01-07 16:19:00,54.8,24.0,29.79,NNW,330,8.0,8.0,30,0.00,,---,0.00,VWS V14.01,2013-01-07 23:19:00,
2013-01-07 16:20:00,54.8,23.2,29.79,North,11,4.0,7.0,29,0.00,,---,0.00,VWS V14.01,2013-01-07 23:20:00,
2013-01-07 16:24:00,54.6,23.8,29.79,NNW,348,4.0,4.0,30,0.00,,---,0.00,VWS V14.01,2013-01-07 23:24:00,
2013-01-07 16:25:00,54.7,23.9,29.78,NNW,334,4.0,8.0,30,0.00,,---,0.00,VWS V14.01,2013-01-07 23:25:00,
2013-01-07 16:29:00,54.4,23.6,29.79,North,355,0.0,0.0,30,0.00,,---,0.00,VWS V14.01,2013-01-07 23:29:00,
2013-01-07 16:30:00,54.5,22.9,29.79,North,355,0.0,7.0,29,0.00,,---,0.00,VWS V14.01,2013-01-07 23:30:00,
2013-01-07 16:34:00,54.3,23.5,29.78,NNW,340,0.0,5.0,30,0.00,,---,0.00,VWS V14.01,2013-01-07 23:34:00,
2013-01-07 16:35:00,54.4,23.6,29.78,NNW,338,5.0,6.0,30,0.00,,---,0.00,VWS V14.01,2013-01-07 23:35:00,
2013-01-07 16:39:00,53.7,23.0,29.78,NNW,344,3.0,8.0,30,0.00,,---,0.00,VWS V14.01,2013-01-07 23:39:00,
2013-01-07 16:40:00,53.8,23.1,29.78,North,5,5.0,7.0,30,0.00,,---,0.00,VWS V14.01,2013-01-07 23:40:00,
2013-01-07 16:44:00,53.1,22.5,29.78,NNE,17,0.0,4.0,30,0.00,,---,0.00,VWS V14.01,2013-01-07 23:44:00,
2013-01-07 16:45:00,53.2,22.6,29.78,North,5,0.0,8.0,30,0.00,,---,0.00,VWS V14.01,2013-01-07 23:45:00,
2013-01-07 16:49:00,52.7,22.2,29.78,North,355,4.0,5.0,30,0.00,,---,0.00,VWS V14.01,2013-01-07 23:49:00,
2013-01-07 16:50:00,52.7,22.2,29.78,North,350,5.0,7.0,30,0.00,,---,0.00,VWS V14.01,2013-01-07 23:50:00,
2013-01-07 16:54:00,52.4,22.7,29.78,NNW,340,0.0,4.0,31,0.00,,---,0.00,VWS V14.01,2013-01-07 23:54:00,
2013-01-07 16:55:00,52.4,22.7,29.79,NNW,333,4.0,7.0,31,0.00,,---,0.00,VWS V14.01,2013-01-07 23:55:00,
2013-01-07 16:59:00,52.2,22.5,29.78,NW,323,2.0,3.0,31,0.00,,---,0.00,VWS V14.01,2013-01-07 23:59:00,
2013-01-07 17:00:00,52.2,22.5,29.78,NW,322,3.0,5.0,31,0.00,,---,0.00,VWS V14.01,2013-01-08 00:00:00,
2013-01-07 17:04:00,52.2,21.7,29.78,NNW,329,6.0,6.0,30,0.00,,---,0.00,VWS V14.01,2013-01-08 00:04:00,
2013-01-07 17:05:00,52.2,22.5,29.78,NNW,330,3.0,5.0,31,0.00,,---,0.00,VWS V14.01,2013-01-08 00:05:00,
2013-01-07 17:09:00,52.5,22.0,29.79,NNW,346,3.0,6.0,30,0.00,,---,0.00,VWS V14.01,2013-01-08 00:09:00,
2013-01-07 17:10:00,52.5,22.0,29.79,NW,325,5.0,7.0,30,0.00,,---,0.00,VWS V14.01,2013-01-08 00:10:00,
2013-01-07 17:14:00,52.2,21.7,29.79,NW,318,2.0,6.0,30,0.00,,---,0.00,VWS V14.01,2013-01-08 00:14:00,
2013-01-07 17:15:00,52.3,21.8,29.79,NW,318,6.0,9.0,30,0.00,,---,0.00,VWS V14.01,2013-01-08 00:15:00,
2013-01-07 17:19:00,51.7,22.1,29.80,WNW,298,3.0,11.0,31,0.00,,---,0.00,VWS V14.01,2013-01-08 00:19:00,
2013-01-07 17:20:00,51.8,22.1,29.79,WNW,299,10.0,10.0,31,0.00,,---,0.00,VWS V14.01,2013-01-08 00:20:00,
2013-01-07 17:24:00,49.9,22.0,29.80,NNW,333,9.0,15.0,33,0.00,,---,0.00,VWS V14.01,2013-01-08 00:24:00,
2013-01-07 17:25:00,50.2,22.2,29.80,NW,318,15.0,15.0,33,0.00,,---,0.00,VWS V14.01,2013-01-08 00:25:00,
2013-01-07 17:29:00,48.4,22.0,29.80,NNW,333,6.0,9.0,35,0.00,,---,0.00,VWS V14.01,2013-01-08 00:29:00,
2013-01-07 17:30:00,48.5,22.1,29.80,NW,321,8.0,15.0,35,0.00,,---,0.00,VWS V14.01,2013-01-08 00:30:00,
2013-01-07 17:34:00,47.3,21.7,29.81,WNW,301,6.0,11.0,36,0.00,,---,0.00,VWS V14.01,2013-01-08 00:34:00,
2013-01-07 17:35:00,47.4,21.8,29.80,WNW,292,10.0,14.0,36,0.00,,---,0.00,VWS V14.01,2013-01-08 00:35:00,
2013-01-07 17:39:00,46.7,21.8,29.81,WNW,298,7.0,11.0,37,0.00,,---,0.00,VWS V14.01,2013-01-08 00:39:00,
2013-01-07 17:40:00,46.7,21.8,29.81,WNW,296,9.0,12.0,37,0.00,,---,0.00,VWS V14.01,2013-01-08 00:40:00,
2013-01-07 17:44:00,46.1,22.5,29.81,WNW,296,10.0,11.0,39,0.00,,---,0.00,VWS V14.01,2013-01-08 00:44:00,
2013-01-07 17:45:00,46.2,22.0,29.81,NW,314,9.0,12.0,38,0.00,,---,0.00,VWS V14.01,2013-01-08 00:45:00,
2013-01-07 17:49:00,45.7,22.2,29.81,WNW,300,11.0,12.0,39,0.00,,---,0.00,VWS V14.01,2013-01-08 00:49:00,
2013-01-07 17:50:00,45.7,22.2,29.81,NW,304,11.0,12.0,39,0.00,,---,0.00,VWS V14.01,2013-01-08 00:50:00,
2013-01-07 17:54:00,45.2,22.3,29.81,NNW,327,9.0,9.0,40,0.00,,---,0.00,VWS V14.01,2013-01-08 00:54:00,
2013-01-07 17:55:00,45.2,22.3,29.81,WNW,302,6.0,13.0,40,0.00,,---,0.00,VWS V14.01,2013-01-08 00:55:00,
2013-01-07 17:59:00,44.9,22.6,29.81,WNW,291,9.0,9.0,41,0.00,,---,0.00,VWS V14.01,2013-01-08 00:59:00,
2013-01-07 18:00:00,45.0,22.7,29.81,WNW,294,7.0,13.0,41,0.00,,---,0.00,VWS V14.01,2013-01-08 01:00:00,
2013-01-07 18:04:00,44.5,22.3,29.82,NW,306,10.0,10.0,41,0.00,,---,0.00,VWS V14.01,2013-01-08 01:04:00,
2013-01-07 18:05:00,44.5,22.3,29.82,NW,309,7.0,12.0,41,0.00,,---,0.00,VWS V14.01,2013-01-08 01:05:00,
2013-01-07 18:09:00,44.4,22.8,29.82,NW,325,9.0,9.0,42,0.00,,---,0.00,VWS V14.01,2013-01-08 01:09:00,
2013-01-07 18:10:00,44.4,22.8,29.82,NW,314,6.0,11.0,42,0.00,,---,0.00,VWS V14.01,2013-01-08 01:10:00,
2013-01-07 18:14:00,44.2,22.6,29.82,NW,319,8.0,10.0,42,0.00,,---,0.00,VWS V14.01,2013-01-08 01:14:00,
2013-01-07 18:15:00,44.2,22.6,29.82,WNW,296,10.0,11.0,42,0.00,,---,0.00,VWS V14.01,2013-01-08 01:15:00,
2013-01-07 18:19:00,43.9,22.3,29.82,NW,306,13.0,13.0,42,0.00,,---,0.00,VWS V14.01,2013-01-08 01:19:00,
2013-01-07 18:20:00,44.0,22.4,29.82,NW,307,8.0,13.0,42,0.00,,---,0.00,VWS V14.01,2013-01-08 01:20:00,
2013-01-07 18:24:00,43.5,22.5,29.82,NW,318,7.0,10.0,43,0.00,,---,0.00,VWS V14.01,2013-01-08 01:24:00,
2013-01-07 18:25:00,43.6,22.6,29.82,NW,311,10.0,14.0,43,0.00,,---,0.00,VWS V14.01,2013-01-08 01:25:00,
2013-01-07 18:29:00,43.3,22.9,29.83,NW,316,4.0,7.0,44,0.00,,---,0.00,VWS V14.01,2013-01-08 01:29:00,
2013-01-07 18:30:00,43.3,22.9,29.83,NW,313,7.0,12.0,44,0.00,,---,0.00,VWS V14.01,2013-01-08 01:30:00,
2013-01-07 18:34:00,42.9,22.5,29.83,NW,322,6.0,10.0,44,0.00,,---,0.00,VWS V14.01,2013-01-08 01:34:00,
2013-01-07 18:35:00,42.9,22.5,29.83,NW,317,4.0,9.0,44,0.00,,---,0.00,VWS V14.01,2013-01-08 01:35:00,
2013-01-07 18:39:00,42.7,22.9,29.83,NW,321,9.0,11.0,45,0.00,,---,0.00,VWS V14.01,2013-01-08 01:39:00,
2013-01-07 18:40:00,42.7,22.9,29.83,NW,304,9.0,11.0,45,0.00,,---,0.00,VWS V14.01,2013-01-08 01:40:00,
2013-01-07 18:44:00,42.5,22.7,29.83,NW,304,12.0,12.0,45,0.00,,---,0.00,VWS V14.01,2013-01-08 01:44:00,
2013-01-07 18:45:00,42.5,22.7,29.83,NW,311,9.0,12.0,45,0.00,,---,0.00,VWS V14.01,2013-01-08 01:45:00,
2013-01-07 18:49:00,42.3,23.0,29.83,NW,317,5.0,9.0,46,0.00,,---,0.00,VWS V14.01,2013-01-08 01:49:00,
2013-01-07 18:50:00,42.3,23.0,29.83,NW,311,5.0,12.0,46,0.00,,---,0.00,VWS V14.01,2013-01-08 01:50:00,
2013-01-07 18:54:00,42.0,22.7,29.83,NW,305,5.0,7.0,46,0.00,,---,0.00,VWS V14.01,2013-01-08 01:54:00,
2013-01-07 18:55:00,42.1,22.8,29.83,WNW,302,6.0,10.0,46,0.00,,---,0.00,VWS V14.01,2013-01-08 01:55:00,
2013-01-07 18:59:00,41.8,23.1,29.83,NW,318,5.0,9.0,47,0.00,,---,0.00,VWS V14.01,2013-01-08 01:59:00,
2013-01-07 19:00:00,41.9,23.2,29.83,NW,325,6.0,11.0,47,0.00,,---,0.00,VWS V14.01,2013-01-08 02:00:00,
2013-01-07 19:04:00,41.6,22.9,29.84,NNW,333,6.0,9.0,47,0.00,,---,0.00,VWS V14.01,2013-01-08 02:04:00,
2013-01-07 19:05:00,41.6,22.9,29.83,NNW,328,6.0,11.0,47,0.00,,---,0.00,VWS V14.01,2013-01-08 02:05:00,
2013-01-07 19:09:00,41.3,23.1,29.84,NW,304,7.0,11.0,48,0.00,,---,0.00,VWS V14.01,2013-01-08 02:09:00,
2013-01-07 19:10:00,41.4,23.2,29.84,NW,315,10.0,11.0,48,0.00,,---,0.00,VWS V14.01,2013-01-08 02:10:00,
2013-01-07 19:14:00,41.2,23.5,29.84,NNW,330,7.0,8.0,49,0.00,,---,0.00,VWS V14.01,2013-01-08 02:14:00,
2013-01-07 19:15:00,41.3,23.6,29.84,NNW,329,5.0,11.0,49,0.00,,---,0.00,VWS V14.01,2013-01-08 02:15:00,
2013-01-07 19:19:00,41.0,23.8,29.84,NW,325,11.0,11.0,50,0.00,,---,0.00,VWS V14.01,2013-01-08 02:19:00,
2013-01-07 19:20:00,41.0,23.3,29.84,WNW,303,5.0,13.0,49,0.00,,---,0.00,VWS V14.01,2013-01-08 02:20:00,
2013-01-07 19:24:00,40.6,23.4,29.84,NNW,329,4.0,8.0,50,0.00,,---,0.00,VWS V14.01,2013-01-08 02:24:00,
2013-01-07 19:25:00,40.7,23.5,29.84,NW,325,6.0,11.0,50,0.00,,---,0.00,VWS V14.01,2013-01-08 02:25:00,
2013-01-07 19:29:00,40.3,23.6,29.85,NW,323,5.0,7.0,51,0.00,,---,0.00,VWS V14.01,2013-01-08 02:29:00,
2013-01-07 19:30:00,40.3,23.6,29.84,NNW,327,4.0,9.0,51,0.00,,---,0.00,VWS V14.01,2013-01-08 02:30:00,
2013-01-07 19:34:00,40.0,23.8,29.85,North,355,7.0,9.0,52,0.00,,---,0.00,VWS V14.01,2013-01-08 02:34:00,
2013-01-07 19:35:00,40.0,23.8,29.85,NNW,330,9.0,9.0,52,0.00,,---,0.00,VWS V14.01,2013-01-08 02:35:00,
2013-01-07 19:39:00,39.8,23.6,29.85,WNW,301,9.0,9.0,52,0.00,,---,0.00,VWS V14.01,2013-01-08 02:39:00,
2013-01-07 19:40:00,39.8,23.6,29.85,NW,315,6.0,10.0,52,0.00,,---,0.00,VWS V14.01,2013-01-08 02:40:00,
2013-01-07 19:44:00,39.8,24.1,29.85,NW,318,6.0,7.0,53,0.00,,---,0.00,VWS V14.01,2013-01-08 02:44:00,
2013-01-07 19:45:00,39.8,24.1,29.85,NW,320,5.0,11.0,53,0.00,,---,0.00,VWS V14.01,2013-01-08 02:45:00,
2013-01-07 19:49:00,39.7,24.0,29.85,NW,323,7.0,7.0,53,0.00,,---,0.00,VWS V14.01,2013-01-08 02:49:00,
2013-01-07 19:50:00,39.7,24.0,29.85,NNW,328,4.0,10.0,53,0.00,,---,0.00,VWS V14.01,2013-01-08 02:50:00,
2013-01-07 19:54:00,39.6,23.9,29.86,NNW,330,6.0,7.0,53,0.00,,---,0.00,VWS V14.01,2013-01-08 02:54:00,
2013-01-07 19:55:00,39.6,23.9,29.85,NNW,327,3.0,9.0,53,0.00,,---,0.00,VWS V14.01,2013-01-08 02:55:00,
2013-01-07 19:59:00,39.6,23.9,29.86,NNW,333,4.0,6.0,53,0.00,,---,0.00,VWS V14.01,2013-01-08 02:59:00,
2013-01-07 20:00:00,39.6,23.9,29.86,NNW,333,6.0,7.0,53,0.00,,---,0.00,VWS V14.01,2013-01-08 03:00:00,
2013-01-07 20:04:00,39.6,23.9,29.86,NNW,337,3.0,3.0,53,0.00,,---,0.00,VWS V14.01,2013-01-08 03:04:00,
2013-01-07 20:05:00,39.6,23.9,29.86,NNW,336,3.0,6.0,53,0.00,,---,0.00,VWS V14.01,2013-01-08 03:05:00,
2013-01-07 20:09:00,39.5,24.2,29.86,North,350,0.0,0.0,54,0.00,,---,0.00,VWS V14.01,2013-01-08 03:09:00,
2013-01-07 20:10:00,39.5,24.2,29.86,North,350,0.0,7.0,54,0.00,,---,0.00,VWS V14.01,2013-01-08 03:10:00,
2013-01-07 20:14:00,39.4,24.1,29.86,North,355,0.0,4.0,54,0.00,,---,0.00,VWS V14.01,2013-01-08 03:14:00,
2013-01-07 20:15:00,39.5,24.2,29.86,North,355,2.0,5.0,54,0.00,,---,0.00,VWS V14.01,2013-01-08 03:15:00,
2013-01-07 20:19:00,39.2,24.0,29.87,NNW,339,2.0,4.0,54,0.00,,---,0.00,VWS V14.01,2013-01-08 03:19:00,
2013-01-07 20:20:00,39.3,24.1,29.86,NNW,339,3.0,7.0,54,0.00,,---,0.00,VWS V14.01,2013-01-08 03:20:00,
2013-01-07 20:24:00,39.1,23.9,29.87,NNW,346,3.0,3.0,54,0.00,,---,0.00,VWS V14.01,2013-01-08 03:24:00,
2013-01-07 20:25:00,39.1,23.9,29.87,NNW,346,2.0,5.0,54,0.00,,---,0.00,VWS V14.01,2013-01-08 03:25:00,
2013-01-07 20:29:00,38.8,24.0,29.86,NNW,348,0.0,0.0,55,0.00,,---,0.00,VWS V14.01,2013-01-08 03:29:00,
2013-01-07 20:30:00,38.8,24.0,29.87,NNW,348,0.0,5.0,55,0.00,,---,0.00,VWS V14.01,2013-01-08 03:30:00,
2013-01-07 20:34:00,38.4,23.7,29.86,NNW,347,2.0,4.0,55,0.00,,---,0.00,VWS V14.01,2013-01-08 03:34:00,
2013-01-07 20:35:00,38.5,23.8,29.86,NNW,347,0.0,5.0,55,0.00,,---,0.00,VWS V14.01,2013-01-08 03:35:00,
2013-01-07 20:39:00,38.2,23.9,29.86,North,360,4.0,5.0,56,0.00,,---,0.00,VWS V14.01,2013-01-08 03:39:00,
2013-01-07 20:40:00,38.3,24.0,29.86,North,355,2.0,6.0,56,0.00,,---,0.00,VWS V14.01,2013-01-08 03:40:00,
2013-01-07 20:44:00,38.0,23.7,29.86,North,355,5.0,5.0,56,0.00,,---,0.00,VWS V14.01,2013-01-08 03:44:00,
2013-01-07 20:45:00,38.0,23.7,29.86,North,355,3.0,5.0,56,0.00,,---,0.00,VWS V14.01,2013-01-08 03:45:00,
2013-01-07 20:49:00,37.9,23.6,29.86,NNW,333,3.0,4.0,56,0.00,,---,0.00,VWS V14.01,2013-01-08 03:49:00,
2013-01-07 20:50:00,37.9,23.6,29.86,NNW,331,4.0,7.0,56,0.00,,---,0.00,VWS V14.01,2013-01-08 03:50:00,
2013-01-07 20:54:00,37.9,23.6,29.86,North,355,0.0,4.0,56,0.00,,---,0.00,VWS V14.01,2013-01-08 03:54:00,
2013-01-07 20:55:00,37.9,23.6,29.86,North,355,3.0,7.0,56,0.00,,---,0.00,VWS V14.01,2013-01-08 03:55:00,
2013-01-07 20:59:00,37.7,23.9,29.86,NNW,331,7.0,9.0,57,0.00,,---,0.00,VWS V14.01,2013-01-08 03:59:00,
2013-01-07 21:00:00,37.7,23.9,29.86,NNW,329,4.0,7.0,57,0.00,,---,0.00,VWS V14.01,2013-01-08 04:00:00,
2013-01-07 21:04:00,37.5,23.7,29.86,NNW,329,6.0,7.0,57,0.00,,---,0.00,VWS V14.01,2013-01-08 04:04:00,
2013-01-07 21:05:00,37.5,23.7,29.86,NNW,331,3.0,9.0,57,0.00,,---,0.00,VWS V14.01,2013-01-08 04:05:00,
2013-01-07 21:09:00,37.3,23.5,29.87,NNW,331,3.0,4.0,57,0.00,,---,0.00,VWS V14.01,2013-01-08 04:09:00,
2013-01-07 21:10:00,37.3,23.5,29.87,NNW,330,2.0,7.0,57,0.00,,---,0.00,VWS V14.01,2013-01-08 04:10:00,
2013-01-07 21:14:00,37.2,23.4,29.87,NNW,331,0.0,0.0,57,0.00,,---,0.00,VWS V14.01,2013-01-08 04:14:00,
2013-01-07 21:15:00,37.2,23.4,29.87,NNW,331,0.0,4.0,57,0.00,,---,0.00,VWS V14.01,2013-01-08 04:15:00,
2013-01-07 21:19:00,37.0,23.6,29.87,NNW,331,0.0,0.0,58,0.00,,---,0.00,VWS V14.01,2013-01-08 04:19:00,
2013-01-07 21:20:00,37.0,23.6,29.87,NNW,331,0.0,0.0,58,0.00,,---,0.00,VWS V14.01,2013-01-08 04:20:00,
2013-01-07 21:24:00,36.6,23.2,29.87,NNW,332,0.0,0.0,58,0.00,,---,0.00,VWS V14.01,2013-01-08 04:24:00,
2013-01-07 21:25:00,36.6,23.2,29.87,NNW,331,0.0,0.0,58,0.00,,---,0.00,VWS V14.01,2013-01-08 04:25:00,
2013-01-07 21:29:00,36.2,23.3,29.86,NNW,333,0.0,0.0,59,0.00,,---,0.00,VWS V14.01,2013-01-08 04:29:00,
2013-01-07 21:30:00,36.3,23.4,29.86,NNW,333,0.0,0.0,59,0.00,,---,0.00,VWS V14.01,2013-01-08 04:30:00,
2013-01-07 21:34:00,36.0,23.1,29.87,NNW,342,0.0,0.0,59,0.00,,---,0.00,VWS V14.01,2013-01-08 04:34:00,
2013-01-07 21:35:00,36.0,23.1,29.87,NNW,342,0.0,0.0,59,0.00,,---,0.00,VWS V14.01,2013-01-08 04:35:00,
2013-01-07 21:39:00,35.7,23.2,29.87,NNW,344,0.0,0.0,60,0.00,,---,0.00,VWS V14.01,2013-01-08 04:39:00,
2013-01-07 21:40:00,35.7,23.2,29.87,NNW,344,0.0,0.0,60,0.00,,---,0.00,VWS V14.01,2013-01-08 04:40:00,
2013-01-07 21:44:00,35.6,23.1,29.86,North,355,0.0,3.0,60,0.00,,---,0.00,VWS V14.01,2013-01-08 04:44:00,
2013-01-07 21:45:00,35.6,23.1,29.86,North,355,3.0,5.0,60,0.00,,---,0.00,VWS V14.01,2013-01-08 04:45:00,
2013-01-07 21:49:00,35.5,23.0,29.86,North,355,3.0,7.0,60,0.00,,---,0.00,VWS V14.01,2013-01-08 04:49:00,
2013-01-07 21:50:00,35.5,23.0,29.86,North,355,7.0,7.0,60,0.00,,---,0.00,VWS V14.01,2013-01-08 04:50:00,
2013-01-07 21:54:00,35.4,23.3,29.87,North,350,3.0,5.0,61,0.00,,---,0.00,VWS V14.01,2013-01-08 04:54:00,
2013-01-07 21:55:00,35.4,23.3,29.86,North,355,3.0,7.0,61,0.00,,---,0.00,VWS V14.01,2013-01-08 04:55:00,
2013-01-07 21:59:00,35.5,23.4,29.87,North,350,2.0,5.0,61,0.00,,---,0.00,VWS V14.01,2013-01-08 04:59:00,
2013-01-07 22:00:00,35.5,23.4,29.86,North,349,4.0,5.0,61,0.00,,---,0.00,VWS V14.01,2013-01-08 05:00:00,
2013-01-07 22:01:00,35.5,23.4,29.86,North,350,2.0,5.0,61,0.00,,---,0.00,VWS V14.01,2013-01-08 05:01:00,
2013-01-07 22:03:00,35.5,23.4,29.86,NNW,333,4.0,8.0,61,0.00,,---,0.00,VWS V14.01,2013-01-08 05:03:00,
2013-01-07 22:05:00,35.5,23.4,29.86,NNW,336,6.0,8.0,61,0.00,,---,0.00,VWS V14.01,2013-01-08 05:05:00,
2013-01-07 22:08:00,35.7,23.2,29.86,NNW,344,5.0,9.0,60,0.00,,---,0.00,VWS V14.01,2013-01-08 05:08:00,
2013-01-07 22:10:00,35.7,23.2,29.86,NNW,336,6.0,9.0,60,0.00,,---,0.00,VWS V14.01,2013-01-08 05:10:00,
2013-01-07 22:13:00,35.9,23.4,29.87,NNW,341,5.0,7.0,60,0.00,,---,0.00,VWS V14.01,2013-01-08 05:13:00,
2013-01-07 22:15:00,35.9,23.4,29.87,NNW,339,4.0,7.0,60,0.00,,---,0.00,VWS V14.01,2013-01-08 05:15:00,
2013-01-07 22:18:00,35.9,23.4,29.87,North,355,3.0,5.0,60,0.00,,---,0.00,VWS V14.01,2013-01-08 05:18:00,
2013-01-07 22:20:00,35.9,23.4,29.87,North,355,4.0,5.0,60,0.00,,---,0.00,VWS V14.01,2013-01-08 05:20:00,
2013-01-07 22:23:00,35.9,23.4,29.87,North,355,4.0,5.0,60,0.00,,---,0.00,VWS V14.01,2013-01-08 05:23:00,
2013-01-07 22:25:00,35.9,23.4,29.87,North,355,3.0,5.0,60,0.00,,---,0.00,VWS V14.01,2013-01-08 05:25:00,
2013-01-07 22:28:00,36.0,23.5,29.87,NNW,338,4.0,5.0,60,0.00,,---,0.00,VWS V14.01,2013-01-08 05:28:00,
2013-01-07 22:30:00,36.1,23.6,29.87,NNW,342,3.0,5.0,60,0.00,,---,0.00,VWS V14.01,2013-01-08 05:30:00,
2013-01-07 22:33:00,36.2,23.7,29.86,NNW,340,4.0,10.0,60,0.00,,---,0.00,VWS V14.01,2013-01-08 05:33:00,
2013-01-07 22:35:00,36.2,23.7,29.86,NNW,340,4.0,10.0,60,0.00,,---,0.00,VWS V14.01,2013-01-08 05:35:00,
2013-01-07 22:38:00,36.3,23.8,29.86,NNW,336,6.0,8.0,60,0.00,,---,0.00,VWS V14.01,2013-01-08 05:38:00,
2013-01-07 22:40:00,36.3,23.8,29.86,NNW,336,5.0,8.0,60,0.00,,---,0.00,VWS V14.01,2013-01-08 05:40:00,
2013-01-07 22:43:00,36.3,23.8,29.86,NW,322,9.0,10.0,60,0.00,,---,0.00,VWS V14.01,2013-01-08 05:43:00,
2013-01-07 22:45:00,36.4,23.9,29.86,NNW,330,5.0,10.0,60,0.00,,---,0.00,VWS V14.01,2013-01-08 05:45:00,
2013-01-07 22:48:00,36.3,23.8,29.87,NW,325,6.0,7.0,60,0.00,,---,0.00,VWS V14.01,2013-01-08 05:48:00,
2013-01-07 22:50:00,36.3,23.8,29.87,NW,323,3.0,7.0,60,0.00,,---,0.00,VWS V14.01,2013-01-08 05:50:00,
2013-01-07 22:53:00,36.2,23.7,29.86,NW,324,8.0,8.0,60,0.00,,---,0.00,VWS V14.01,2013-01-08 05:53:00,
2013-01-07 22:55:00,36.2,23.7,29.86,NW,318,7.0,8.0,60,0.00,,---,0.00,VWS V14.01,2013-01-08 05:55:00,
2013-01-07 22:58:00,36.1,23.6,29.87,NW,311,6.0,10.0,60,0.00,,---,0.00,VWS V14.01,2013-01-08 05:58:00,
2013-01-07 23:00:00,36.1,23.6,29.87,NW,309,9.0,10.0,60,0.00,,---,0.00,VWS V14.01,2013-01-08 06:00:00,
2013-01-07 23:03:00,35.9,23.4,29.86,NW,323,6.0,10.0,60,0.00,,---,0.00,VWS V14.01,2013-01-08 06:03:00,
2013-01-07 23:05:00,35.9,23.4,29.86,NW,323,4.0,10.0,60,0.00,,---,0.00,VWS V14.01,2013-01-08 06:05:00,
2013-01-07 23:08:00,35.8,23.3,29.86,NNW,329,7.0,9.0,60,0.00,,---,0.00,VWS V14.01,2013-01-08 06:08:00,
2013-01-07 23:10:00,35.8,23.3,29.86,NW,313,7.0,11.0,60,0.00,,---,0.00,VWS V14.01,2013-01-08 06:10:00,
2013-01-07 23:13:00,35.7,23.2,29.86,NW,319,4.0,10.0,60,0.00,,---,0.00,VWS V14.01,2013-01-08 06:13:00,
2013-01-07 23:15:00,35.7,23.2,29.86,NW,316,7.0,10.0,60,0.00,,---,0.00,VWS V14.01,2013-01-08 06:15:00,
2013-01-07 23:18:00,35.7,23.2,29.88,NW,326,3.0,8.0,60,0.00,,---,0.00,VWS V14.01,2013-01-08 06:18:00,
2013-01-07 23:20:00,35.6,23.1,29.88,NNW,327,3.0,8.0,60,0.00,,---,0.00,VWS V14.01,2013-01-08 06:20:00,
2013-01-07 23:23:00,35.5,23.0,29.88,NNW,335,4.0,5.0,60,0.00,,---,0.00,VWS V14.01,2013-01-08 06:23:00,
2013-01-07 23:25:00,35.5,23.4,29.88,NNW,340,4.0,5.0,61,0.00,,---,0.00,VWS V14.01,2013-01-08 06:25:00,
2013-01-07 23:28:00,35.4,23.3,29.88,NNW,340,2.0,7.0,61,0.00,,---,0.00,VWS V14.01,2013-01-08 06:28:00,
2013-01-07 23:30:00,35.4,23.3,29.88,NNW,340,0.0,7.0,61,0.00,,---,0.00,VWS V14.01,2013-01-08 06:30:00,
2013-01-07 23:33:00,35.2,23.1,29.88,NNW,340,4.0,5.0,61,0.00,,---,0.00,VWS V14.01,2013-01-08 06:33:00,
2013-01-07 23:35:00,35.2,23.1,29.88,NNW,340,4.0,5.0,61,0.00,,---,0.00,VWS V14.01,2013-01-08 06:35:00,
2013-01-07 23:38:00,35.2,23.5,29.88,NW,317,5.0,7.0,62,0.00,,---,0.00,VWS V14.01,2013-01-08 06:38:00,
2013-01-07 23:40:00,35.2,23.5,29.88,NW,319,4.0,7.0,62,0.00,,---,0.00,VWS V14.01,2013-01-08 06:40:00,
2013-01-07 23:43:00,35.1,23.4,29.87,NNW,327,4.0,5.0,62,0.00,,---,0.00,VWS V14.01,2013-01-08 06:43:00,
2013-01-07 23:45:00,35.1,23.4,29.87,NNW,331,3.0,6.0,62,0.00,,---,0.00,VWS V14.01,2013-01-08 06:45:00,
2013-01-07 23:48:00,35.2,23.5,29.87,NNW,331,5.0,9.0,62,0.00,,---,0.00,VWS V14.01,2013-01-08 06:48:00,
2013-01-07 23:50:00,35.2,23.5,29.87,NNW,338,4.0,9.0,62,0.00,,---,0.00,VWS V14.01,2013-01-08 06:50:00,
2013-01-07 23:53:00,35.1,23.4,29.88,NNW,338,2.0,6.0,62,0.00,,---,0.00,VWS V14.01,2013-01-08 06:53:00,
2013-01-07 23:55:00,35.1,23.4,29.88,NNW,338,1.0,6.0,62,0.00,,---,0.00,VWS V14.01,2013-01-08 06:55:00,
2013-01-07 23:58:00,34.8,23.1,29.88,NNW,333,7.0,7.0,62,0.00,,---,0.00,VWS V14.01,2013-01-08 06:58:00,